Time;durP1;ratioP1;P1;durP2;ratioP2;P2;SDS_P1;SDS_P2;PMS_P1;PMS_P2;Temp;Humidity;BMP_temperature;BMP_pressure;BME280_temperature;BME280_humidity;BME280_pressure;Samples;Min_cycle;Max_cycle;Signal;HPM_P1;HPM_P2
2022/02/01 00:00:43;;;;;;;11.27;6.80;;;4.60;99.90;;;;;;4938006;29;20046;-89
2022/02/01 00:03:13;;;;;;;13.02;6.65;;;4.70;99.90;;;;;;4920794;29;20031;-89
2022/02/01 00:05:52;;;;;;;11.25;5.82;;;4.70;99.90;;;;;;4937510;29;20063;-89
2022/02/01 00:08:42;;;;;;;8.65;4.30;;;5.30;99.90;;;;;;4937536;29;20090;-89
2022/02/01 00:11:30;;;;;;;10.45;4.82;;;5.00;99.90;;;;;;4938033;29;20027;-90
2022/02/01 00:17:03;;;;;;;25.20;12.60;;;5.00;99.90;;;;;;4918897;29;20036;-89
2022/02/01 00:33:37;;;;;;;17.25;6.82;;;4.70;99.90;;;;;;4898176;29;20124;-89
2022/02/01 00:36:10;;;;;;;11.20;4.50;;;4.60;99.90;;;;;;4897830;29;20068;-89
2022/02/01 00:41:07;;;;;;;6.53;3.08;;;4.90;99.90;;;;;;4897722;29;20036;-90
2022/02/01 00:43:33;;;;;;;6.53;2.65;;;4.40;99.90;;;;;;4897977;29;20044;-89
2022/02/01 00:46:02;;;;;;;7.35;3.35;;;4.40;99.90;;;;;;4897588;29;20552;-89
2022/02/01 00:48:28;;;;;;;8.00;3.53;;;4.90;99.90;;;;;;4897940;29;20257;-89
2022/02/01 00:50:54;;;;;;;8.27;3.88;;;4.90;99.90;;;;;;4897839;29;20493;-90
2022/02/01 00:53:26;;;;;;;8.90;3.65;;;4.50;99.90;;;;;;4894860;29;20037;-89
2022/02/01 00:55:52;;;;;;;8.55;3.42;;;4.40;99.90;;;;;;4897633;29;20052;-90
2022/02/01 00:58:18;;;;;;;9.25;4.40;;;4.40;99.90;;;;;;4896941;29;20149;-89
2022/02/01 01:00:43;;;;;;;8.43;4.07;;;4.80;99.90;;;;;;4881720;29;20048;-89
2022/02/01 01:03:09;;;;;;;9.88;3.90;;;4.60;99.90;;;;;;4898758;29;20033;-90
2022/02/01 01:05:35;;;;;;;8.40;3.38;;;4.50;99.90;;;;;;4898044;29;20041;-89
2022/02/01 01:08:00;;;;;;;7.25;3.70;;;4.90;99.90;;;;;;4929517;29;20042;-89
2022/02/01 01:10:26;;;;;;;7.47;2.90;;;4.50;99.90;;;;;;4937960;29;20384;-89
2022/02/01 01:15:38;;;;;;;5.80;2.58;;;5.10;99.90;;;;;;4940857;29;20095;-87
2022/02/01 01:52:58;;;;;;;8.88;3.88;;;4.50;99.90;;;;;;4899277;29;20036;-90
2022/02/01 01:54:02;;;;;;;10.82;4.05;;;3.90;99.90;;;;;;4899566;29;20068;-89
2022/02/01 01:56:32;;;;;;;10.48;3.92;;;4.60;99.90;;;;;;4899723;29;20036;-89
2022/02/01 01:59:01;;;;;;;10.68;4.18;;;4.00;99.90;;;;;;4899435;29;20044;-90
2022/02/01 02:01:27;;;;;;;9.25;3.97;;;4.00;99.90;;;;;;4897207;29;20032;-89
2022/02/01 02:03:53;;;;;;;11.73;4.38;;;4.30;99.90;;;;;;4897859;29;20052;-90
2022/02/01 02:06:20;;;;;;;11.50;3.88;;;4.50;99.90;;;;;;4898689;29;20112;-90
2022/02/01 02:08:47;;;;;;;10.50;3.50;;;3.90;99.90;;;;;;4926871;29;20134;-89
2022/02/01 02:11:20;;;;;;;9.52;3.65;;;4.20;99.90;;;;;;4924263;29;20023;-90
2022/02/01 02:16:41;;;;;;;11.13;3.33;;;3.60;99.90;;;;;;4920288;29;20022;-90
2022/02/01 02:19:08;;;;;;;6.75;3.10;;;3.60;99.90;;;;;;4945787;29;20031;-89
2022/02/01 02:21:34;;;;;;;11.88;3.45;;;3.70;99.90;;;;;;4938981;29;20394;-89
2022/02/01 02:24:00;;;;;;;10.05;2.78;;;3.70;99.90;;;;;;4939767;29;20036;-89
2022/02/01 02:26:26;;;;;;;6.00;2.58;;;3.60;99.90;;;;;;4922140;29;20384;-90
2022/02/01 02:28:52;;;;;;;9.10;2.75;;;3.70;99.90;;;;;;4936343;29;20035;-89
2022/02/01 02:31:21;;;;;;;9.40;2.95;;;4.30;99.90;;;;;;4920759;29;20031;-90
2022/02/01 02:33:47;;;;;;;7.00;2.88;;;4.10;99.90;;;;;;4939384;29;20042;-89
2022/02/01 02:36:19;;;;;;;9.68;2.53;;;3.60;99.90;;;;;;4939140;29;20023;-90
2022/02/01 02:38:49;;;;;;;6.68;2.72;;;3.50;99.90;;;;;;4938802;29;20412;-90
2022/02/01 02:41:48;;;;;;;8.73;2.90;;;3.50;99.90;;;;;;4938344;29;20019;-90
2022/02/01 02:46:58;;;;;;;10.77;2.85;;;3.90;99.90;;;;;;4937305;29;20047;-90
2022/02/01 02:49:24;;;;;;;9.10;3.20;;;3.80;99.90;;;;;;4919062;29;20397;-90
2022/02/01 02:51:51;;;;;;;6.53;3.42;;;3.70;99.90;;;;;;4937295;29;20049;-89
2022/02/01 02:54:20;;;;;;;9.57;2.67;;;3.20;99.90;;;;;;4922582;29;20036;-90
2022/02/01 02:56:51;;;;;;;9.38;2.80;;;3.10;99.90;;;;;;4938778;29;20024;-90
2022/02/01 02:59:18;;;;;;;6.47;3.10;;;3.10;99.90;;;;;;4938450;29;20218;-90
2022/02/01 03:01:47;;;;;;;9.15;2.97;;;3.00;99.90;;;;;;4935165;29;20030;-90
2022/02/01 03:04:14;;;;;;;9.80;2.97;;;3.40;99.90;;;;;;4937629;29;20440;-89
2022/02/01 03:06:41;;;;;;;7.38;3.10;;;3.50;99.90;;;;;;4938828;29;20059;-89
2022/02/01 03:09:06;;;;;;;9.20;3.10;;;3.00;99.90;;;;;;4938838;29;20036;-90
2022/02/01 03:11:32;;;;;;;10.57;3.70;;;2.90;99.90;;;;;;4938317;29;20058;-90
2022/02/01 03:14:00;;;;;;;10.00;2.95;;;2.90;99.90;;;;;;4936244;29;20419;-89
2022/02/01 03:16:36;;;;;;;9.73;4.85;;;2.80;99.90;;;;;;4935569;29;20102;-89
2022/02/01 03:21:47;;;;;;;10.52;3.17;;;2.80;99.90;;;;;;4938686;29;20038;-89
2022/02/01 03:24:12;;;;;;;7.97;2.50;;;2.70;99.90;;;;;;4938334;29;20405;-89
2022/02/01 03:26:38;;;;;;;5.57;3.17;;;2.70;99.90;;;;;;4937995;29;20563;-89
2022/02/01 03:29:04;;;;;;;11.27;3.90;;;2.70;99.90;;;;;;4937167;29;20042;-89
2022/02/01 03:31:29;;;;;;;8.55;3.40;;;2.80;99.90;;;;;;4934933;29;20059;-89
2022/02/01 03:33:55;;;;;;;8.95;3.72;;;2.70;99.90;;;;;;4939007;29;20032;-89
2022/02/01 03:36:20;;;;;;;12.13;5.88;;;2.70;99.90;;;;;;4922150;29;20132;-89
2022/02/01 03:38:47;;;;;;;18.10;8.82;;;2.60;99.90;;;;;;4920978;29;20052;-89
2022/02/01 03:41:13;;;;;;;17.65;7.55;;;3.30;99.90;;;;;;4938152;29;20090;-90
2022/02/01 03:43:39;;;;;;;9.30;4.53;;;2.60;99.90;;;;;;4917191;29;20135;-89
2022/02/01 03:46:05;;;;;;;11.43;4.57;;;2.60;99.90;;;;;;4938370;29;20031;-89
2022/02/01 03:48:30;;;;;;;10.27;3.45;;;2.50;99.90;;;;;;4937945;29;20032;-89
2022/02/01 03:50:56;;;;;;;8.90;3.13;;;2.50;99.90;;;;;;4937942;29;20036;-89
2022/02/01 03:53:22;;;;;;;12.82;2.60;;;3.10;99.90;;;;;;4941420;29;20031;-89
2022/02/01 03:55:47;;;;;;;4.68;2.28;;;3.10;99.90;;;;;;4938964;29;20024;-90
2022/02/01 03:58:13;;;;;;;7.53;2.80;;;2.50;99.90;;;;;;4941059;29;20036;-90
2022/02/01 04:00:39;;;;;;;11.32;2.70;;;2.40;99.90;;;;;;4942096;29;20031;-89
2022/02/01 04:03:04;;;;;;;7.93;2.80;;;2.50;99.90;;;;;;4941816;29;20047;-89
2022/02/01 04:05:34;;;;;;;8.45;2.47;;;2.50;99.90;;;;;;4926029;29;20117;-90
2022/02/01 04:08:00;;;;;;;8.50;2.70;;;2.50;99.90;;;;;;4940052;29;20412;-89
2022/02/01 04:10:26;;;;;;;12.88;3.38;;;3.00;99.90;;;;;;4922145;29;20031;-88
2022/02/01 04:12:53;;;;;;;6.75;2.42;;;2.50;99.90;;;;;;4942012;29;20023;-90
2022/02/01 04:15:22;;;;;;;10.55;2.75;;;2.40;99.90;;;;;;4941713;29;20031;-90
2022/02/01 04:17:48;;;;;;;9.23;2.47;;;2.40;99.90;;;;;;4925415;29;20027;-89
2022/02/01 04:20:14;;;;;;;6.38;2.53;;;2.50;99.90;;;;;;4925129;29;20042;-90
2022/02/01 04:22:40;;;;;;;11.23;3.50;;;2.50;99.90;;;;;;4937461;29;20099;-90
2022/02/01 04:25:06;;;;;;;9.73;2.55;;;3.10;99.90;;;;;;4948452;29;20023;-90
2022/02/01 04:27:31;;;;;;;7.57;2.65;;;2.30;99.90;;;;;;4941895;29;20315;-89
2022/02/01 04:30:08;;;;;;;9.98;2.88;;;2.30;99.90;;;;;;4941248;29;20452;-90
2022/02/01 04:32:44;;;;;;;8.02;2.70;;;2.40;99.90;;;;;;4941597;29;20057;-89
2022/02/01 04:35:16;;;;;;;7.15;2.40;;;2.30;99.90;;;;;;4941017;29;20066;-90
2022/02/01 04:37:42;;;;;;;7.18;2.45;;;2.20;99.90;;;;;;4905514;29;20059;-89
2022/02/01 04:40:10;;;;;;;8.70;2.40;;;2.30;99.90;;;;;;4924807;29;20042;-89
2022/02/01 04:42:38;;;;;;;5.45;2.25;;;2.30;99.90;;;;;;4941200;28;20099;-90
2022/02/01 04:45:12;;;;;;;9.38;2.28;;;2.20;99.90;;;;;;4925303;29;20118;-89
2022/02/01 04:47:38;;;;;;;6.50;2.55;;;2.20;99.90;;;;;;4930507;29;20027;-89
2022/02/01 04:50:11;;;;;;;9.10;2.30;;;2.20;99.90;;;;;;4952148;29;20079;-90
2022/02/01 04:52:37;;;;;;;6.45;2.50;;;2.20;99.90;;;;;;4937488;29;20032;-89
2022/02/01 04:55:03;;;;;;;8.18;2.60;;;2.10;99.90;;;;;;4924420;29;20028;-90
2022/02/01 04:57:28;;;;;;;9.90;3.17;;;2.20;99.90;;;;;;4941326;29;20070;-90
2022/02/01 04:59:54;;;;;;;9.27;2.60;;;2.20;99.90;;;;;;4940882;29;20047;-90
2022/02/01 05:02:20;;;;;;;9.27;2.53;;;2.20;99.90;;;;;;4951543;28;20047;-90
2022/02/01 05:04:45;;;;;;;7.75;2.75;;;2.30;99.90;;;;;;4937065;29;20489;-90
2022/02/01 05:07:11;;;;;;;6.35;2.00;;;2.30;99.90;;;;;;4920454;29;20114;-90
2022/02/01 05:09:37;;;;;;;8.23;2.03;;;2.80;99.90;;;;;;4952686;29;20170;-90
2022/02/01 05:12:06;;;;;;;8.45;2.40;;;2.50;99.90;;;;;;4922751;29;20059;-90
2022/02/01 05:14:32;;;;;;;8.25;2.60;;;2.60;99.90;;;;;;4923885;29;20027;-89
2022/02/01 05:16:59;;;;;;;11.48;2.65;;;2.60;99.90;;;;;;4952085;29;20035;-90
2022/02/01 05:21:58;;;;;;;7.07;2.38;;;2.50;99.90;;;;;;4939636;29;20027;-90
2022/02/01 05:24:25;;;;;;;8.00;2.20;;;2.50;99.90;;;;;;4940881;29;20035;-90
2022/02/01 05:26:53;;;;;;;12.25;2.38;;;3.00;99.90;;;;;;4945465;29;20038;-90
2022/02/01 05:29:19;;;;;;;12.45;2.75;;;2.40;99.90;;;;;;4947250;29;20028;-88
2022/02/01 05:31:45;;;;;;;10.38;2.58;;;3.00;99.90;;;;;;4933795;29;20028;-90
2022/02/01 05:34:11;;;;;;;7.55;2.30;;;2.30;99.90;;;;;;4937301;29;20425;-90
2022/02/01 05:36:36;;;;;;;8.00;2.40;;;2.30;99.90;;;;;;4936695;29;20035;-90
2022/02/01 05:39:16;;;;;;;8.10;2.05;;;2.60;99.90;;;;;;4933858;29;20036;-89
2022/02/01 05:41:42;;;;;;;9.07;2.13;;;2.30;99.90;;;;;;4944205;29;20047;-89
2022/02/01 05:44:07;;;;;;;10.40;2.70;;;2.20;99.90;;;;;;4930899;29;20038;-90
2022/02/01 05:46:35;;;;;;;5.90;2.35;;;2.20;99.90;;;;;;4916762;29;20450;-90
2022/02/01 05:49:02;;;;;;;7.53;2.20;;;2.30;99.90;;;;;;4954235;29;20050;-90
2022/02/01 05:51:27;;;;;;;7.53;2.03;;;2.80;99.90;;;;;;4924387;29;20036;-90
2022/02/01 05:53:53;;;;;;;6.40;2.33;;;2.20;99.90;;;;;;4924258;29;20699;-89
2022/02/01 05:56:19;;;;;;;11.45;2.85;;;2.20;99.90;;;;;;4940271;29;20055;-90
2022/02/01 05:58:44;;;;;;;7.15;2.40;;;2.20;99.90;;;;;;4919548;29;20595;-90
2022/02/01 06:01:10;;;;;;;7.43;2.50;;;2.10;99.90;;;;;;4940256;29;20539;-90
2022/02/01 06:03:36;;;;;;;9.23;2.40;;;2.50;99.90;;;;;;4940671;29;20027;-89
2022/02/01 06:06:02;;;;;;;10.40;2.55;;;2.00;99.90;;;;;;4919092;29;20043;-90
2022/02/01 06:08:28;;;;;;;10.35;2.80;;;1.90;99.90;;;;;;4941731;29;20051;-90
2022/02/01 06:10:54;;;;;;;9.75;2.97;;;1.90;99.90;;;;;;4935161;29;20039;-90
2022/02/01 06:13:20;;;;;;;14.32;3.58;;;2.60;99.90;;;;;;4938247;29;20032;-90
2022/02/01 06:15:45;;;;;;;12.73;3.55;;;2.00;99.90;;;;;;4925142;29;20035;-90
2022/02/01 06:18:11;;;;;;;12.30;4.40;;;1.90;99.90;;;;;;4922824;29;20055;-90
2022/02/01 06:20:36;;;;;;;12.93;6.15;;;2.30;99.90;;;;;;4938809;29;20178;-90
2022/02/01 06:23:02;;;;;;;10.02;5.22;;;1.80;99.90;;;;;;4932316;29;20051;-90
2022/02/01 06:25:48;;;;;;;16.80;8.48;;;1.80;99.90;;;;;;4950865;29;20031;-90
2022/02/01 06:28:19;;;;;;;10.30;3.10;;;1.80;99.90;;;;;;4947778;29;20031;-90
2022/02/01 06:30:45;;;;;;;12.05;5.72;;;1.80;99.90;;;;;;4937915;29;20032;-90
2022/02/01 06:33:11;;;;;;;10.90;7.03;;;1.80;99.90;;;;;;4924486;29;20032;-89
2022/02/01 06:35:37;;;;;;;15.07;6.28;;;2.30;99.90;;;;;;4925700;29;20452;-90
2022/02/01 06:38:03;;;;;;;10.15;2.72;;;1.80;99.90;;;;;;4946485;29;20023;-89
2022/02/01 06:40:28;;;;;;;11.25;2.95;;;1.90;99.90;;;;;;4936709;29;20043;-90
2022/02/01 06:42:55;;;;;;;7.95;2.70;;;1.90;99.90;;;;;;4948684;29;20051;-89
2022/02/01 06:45:22;;;;;;;11.52;3.72;;;1.90;99.90;;;;;;4934277;29;20031;-90
2022/02/01 06:47:48;;;;;;;11.93;3.13;;;1.90;99.90;;;;;;4939480;29;20038;-89
2022/02/01 06:50:19;;;;;;;7.00;3.00;;;1.90;99.90;;;;;;4949805;29;20472;-90
2022/02/01 06:52:44;;;;;;;9.93;3.75;;;2.70;99.90;;;;;;4920613;29;20083;-90
2022/02/01 06:55:12;;;;;;;12.68;3.25;;;2.00;99.90;;;;;;4950598;29;20031;-90
2022/02/01 06:57:39;;;;;;;12.00;3.58;;;2.10;99.90;;;;;;4945950;29;20098;-90
2022/02/01 07:00:07;;;;;;;11.57;4.65;;;2.00;99.90;;;;;;4940428;29;20575;-90
2022/02/01 07:02:33;;;;;;;15.57;4.53;;;2.10;99.90;;;;;;4939175;29;20118;-88
2022/02/01 07:05:00;;;;;;;12.20;4.03;;;2.50;99.90;;;;;;4934811;29;20035;-89
2022/02/01 07:07:25;;;;;;;12.30;3.85;;;2.20;99.90;;;;;;4934815;29;20035;-88
2022/02/01 07:09:51;;;;;;;39.92;22.00;;;2.20;99.90;;;;;;4936311;29;20027;-89
2022/02/01 07:12:17;;;;;;;27.45;15.43;;;2.20;99.90;;;;;;4938047;29;20034;-89
2022/02/01 07:14:42;;;;;;;13.18;4.30;;;2.30;99.90;;;;;;4938627;29;20023;-89
2022/02/01 07:17:08;;;;;;;11.63;5.25;;;2.20;99.90;;;;;;4920767;29;20114;-90
2022/02/01 07:19:33;;;;;;;17.35;8.13;;;2.20;99.90;;;;;;4917584;29;20043;-89
2022/02/01 07:21:59;;;;;;;14.07;5.85;;;2.30;99.90;;;;;;4939811;29;20032;-89
2022/02/01 07:24:30;;;;;;;13.38;4.28;;;2.30;99.90;;;;;;4937945;29;20508;-88
2022/02/01 07:26:58;;;;;;;11.73;3.30;;;2.40;99.90;;;;;;4938049;29;20040;-88
2022/02/01 07:29:27;;;;;;;15.60;4.18;;;2.50;99.90;;;;;;4938205;29;20031;-91
2022/02/01 07:31:53;;;;;;;13.98;3.47;;;2.60;99.90;;;;;;4920601;29;20464;-92
2022/02/01 07:34:18;;;;;;;7.18;3.70;;;2.80;99.90;;;;;;4920651;29;20119;-91
2022/02/01 07:36:44;;;;;;;9.55;3.17;;;2.90;99.90;;;;;;4947084;29;20485;-91
2022/02/01 07:39:11;;;;;;;12.13;4.30;;;3.10;99.90;;;;;;4941390;29;20040;-91
2022/02/01 07:41:37;;;;;;;9.45;2.70;;;3.40;99.90;;;;;;4919776;29;20044;-91
2022/02/01 07:44:04;;;;;;;10.63;3.90;;;3.90;99.90;;;;;;4917679;29;20173;-91
2022/02/01 07:46:31;;;;;;;10.95;4.63;;;3.80;99.90;;;;;;4931715;29;20448;-90
2022/02/01 07:48:57;;;;;;;11.05;3.25;;;4.70;99.90;;;;;;4920659;29;20036;-91
2022/02/01 07:51:22;;;;;;;10.43;3.80;;;4.90;99.90;;;;;;4919481;29;20596;-91
2022/02/01 07:53:48;;;;;;;8.40;3.40;;;5.30;99.90;;;;;;4918457;29;20079;-90
2022/02/01 07:56:14;;;;;;;12.07;3.50;;;5.50;99.90;;;;;;4939578;29;20028;-91
2022/02/01 07:58:40;;;;;;;9.05;3.10;;;5.70;99.90;;;;;;4945188;29;20036;-91
2022/02/01 08:01:06;;;;;;;9.73;3.47;;;6.10;99.90;;;;;;4920361;29;20029;-89
2022/02/01 08:03:31;;;;;;;9.95;3.20;;;6.60;99.90;;;;;;4925415;29;20587;-91
2022/02/01 08:05:57;;;;;;;10.88;2.88;;;6.70;99.90;;;;;;4920428;29;20481;-90
2022/02/01 08:08:23;;;;;;;7.32;2.80;;;6.60;99.90;;;;;;4917879;29;20480;-90
2022/02/01 08:10:52;;;;;;;8.15;2.90;;;7.90;99.90;;;;;;4916108;29;20040;-91
2022/02/01 08:18:47;;;;;;;10.95;2.92;;;10.80;99.90;;;;;;4919401;29;20525;-91
2022/02/01 08:21:22;;;;;;;8.25;2.97;;;10.10;99.90;;;;;;4918457;29;20439;-91
2022/02/01 08:23:48;;;;;;;8.77;3.28;;;9.40;99.90;;;;;;4918146;29;20071;-91
2022/02/01 08:26:13;;;;;;;11.88;3.22;;;9.00;99.90;;;;;;4919425;29;20052;-91
2022/02/01 08:28:39;;;;;;;10.07;2.72;;;9.90;99.90;;;;;;4914278;29;20027;-91
2022/02/01 08:31:05;;;;;;;10.07;2.67;;;11.50;99.90;;;;;;4920172;29;20139;-92
2022/02/01 08:33:31;;;;;;;7.70;2.97;;;13.90;99.90;;;;;;4919367;29;20032;-91
2022/02/01 08:35:57;;;;;;;8.95;3.45;;;15.30;99.90;;;;;;4918897;29;20520;-91
2022/02/01 08:38:22;;;;;;;10.95;3.15;;;17.30;99.90;;;;;;4920901;29;20035;-90
2022/02/01 08:40:49;;;;;;;9.25;3.13;;;18.20;99.90;;;;;;4919215;29;20055;-90
2022/02/01 08:43:19;;;;;;;8.88;3.20;;;19.00;99.90;;;;;;4938934;29;20062;-90
2022/02/01 08:45:45;;;;;;;7.95;2.53;;;18.90;99.90;;;;;;4924520;29;20288;-90
2022/02/01 08:48:11;;;;;;;7.32;2.60;;;20.20;99.90;;;;;;4925616;29;20034;-90
2022/02/01 08:50:37;;;;;;;11.25;2.80;;;20.50;99.90;;;;;;4941932;29;20054;-91
2022/02/01 08:53:46;;;;;;;8.18;2.53;;;20.30;99.90;;;;;;4925143;29;20484;-89
2022/02/01 08:58:23;;;;;;;10.18;3.28;;;21.90;99.90;;;;;;4939892;29;20444;-90
2022/02/01 09:00:49;;;;;;;6.28;3.20;;;22.60;99.90;;;;;;4941857;29;20083;-89
2022/02/01 09:03:15;;;;;;;10.80;5.95;;;22.20;99.90;;;;;;4924445;29;20028;-90
2022/02/01 09:05:45;;;;;;;7.75;2.75;;;21.10;99.90;;;;;;4941214;29;20023;-89
2022/02/01 09:08:10;;;;;;;8.02;2.80;;;21.90;99.90;;;;;;4940800;29;20027;-90
2022/02/01 09:10:36;;;;;;;6.88;1.90;;;22.10;99.90;;;;;;4937409;29;20527;-90
2022/02/01 09:13:02;;;;;;;8.52;2.67;;;22.30;99.90;;;;;;4941413;29;20122;-89
2022/02/01 09:15:29;;;;;;;5.43;2.22;;;22.50;99.90;;;;;;4940856;29;20507;-89
2022/02/01 09:17:56;;;;;;;6.25;2.25;;;22.30;99.90;;;;;;4941005;29;20556;-90
2022/02/01 09:20:23;;;;;;;8.23;2.75;;;20.60;99.90;;;;;;4940373;29;20078;-89
2022/02/01 09:22:48;;;;;;;6.75;2.97;;;21.40;99.90;;;;;;4921661;29;20034;-89
2022/02/01 09:25:17;;;;;;;6.05;2.85;;;22.70;99.90;;;;;;4940841;29;20031;-89
2022/02/01 09:27:44;;;;;;;6.55;2.35;;;22.60;99.90;;;;;;4937995;29;20024;-89
2022/02/01 09:30:10;;;;;;;7.82;3.45;;;19.00;99.90;;;;;;4926365;29;20035;-89
2022/02/01 09:32:35;;;;;;;7.68;2.97;;;18.80;99.90;;;;;;4924866;29;20027;-88
2022/02/01 09:35:01;;;;;;;8.52;2.45;;;18.10;99.90;;;;;;4938690;29;20119;-89
2022/02/01 09:37:27;;;;;;;9.68;2.72;;;22.90;99.90;;;;;;4937724;29;20027;-89
2022/02/01 09:39:53;;;;;;;8.90;3.00;;;20.70;99.90;;;;;;4940907;29;20039;-89
2022/02/01 09:42:18;;;;;;;9.05;2.97;;;19.70;99.90;;;;;;4940414;29;20048;-89
2022/02/01 09:44:44;;;;;;;8.43;2.83;;;17.30;99.90;;;;;;4939961;29;20032;-88
2022/02/01 09:47:11;;;;;;;9.95;2.88;;;16.20;99.90;;;;;;4939508;29;20396;-88
2022/02/01 09:49:37;;;;;;;8.05;3.03;;;15.30;99.90;;;;;;4936216;29;20034;-88
2022/02/01 09:52:03;;;;;;;6.80;2.72;;;14.80;99.90;;;;;;4940449;29;20051;-88
2022/02/01 09:54:30;;;;;;;8.20;2.80;;;14.40;99.90;;;;;;4939781;29;20036;-88
2022/02/01 09:56:58;;;;;;;11.68;3.00;;;14.20;99.90;;;;;;4941156;29;20035;-94
2022/02/01 09:59:34;;;;;;;6.13;2.67;;;15.00;99.90;;;;;;4924276;29;20042;-86
2022/02/01 10:02:13;;;;;;;7.82;2.50;;;18.00;99.90;;;;;;4937629;29;20031;-86
2022/02/01 10:04:39;;;;;;;8.57;2.90;;;18.40;99.90;;;;;;4935482;29;20031;-92
2022/02/01 10:07:13;;;;;;;7.95;2.60;;;18.00;99.90;;;;;;4923818;29;20035;-88
2022/02/01 10:09:52;;;;;;;11.13;3.05;;;19.80;99.90;;;;;;4940234;29;20040;-86
2022/02/01 10:12:19;;;;;;;7.78;2.40;;;20.30;99.90;;;;;;4939590;29;20035;-89
2022/02/01 10:14:53;;;;;;;10.00;3.00;;;19.40;99.90;;;;;;4923094;29;20493;-89
2022/02/01 10:17:40;;;;;;;6.80;2.60;;;19.60;99.90;;;;;;4939964;29;20484;-89
2022/02/01 10:20:06;;;;;;;8.88;2.55;;;20.70;99.90;;;;;;4938607;29;20118;-89
2022/02/01 10:22:35;;;;;;;6.70;2.67;;;19.90;99.90;;;;;;4936928;29;20024;-89
2022/02/01 10:25:18;;;;;;;9.63;3.38;;;18.60;99.90;;;;;;4940183;29;20059;-89
2022/02/01 10:27:53;;;;;;;9.35;2.88;;;20.00;99.90;;;;;;4946386;29;20406;-89
2022/02/01 10:30:20;;;;;;;6.43;2.78;;;23.20;99.90;;;;;;4942195;29;20087;-89
2022/02/01 10:38:05;;;;;;;7.97;2.92;;;27.20;99.90;;;;;;4923887;29;20043;-89
2022/02/01 10:40:46;;;;;;;8.82;3.50;;;26.50;99.90;;;;;;4936276;29;20040;-88
2022/02/01 10:43:25;;;;;;;8.90;3.00;;;25.30;99.90;;;;;;4947424;29;20043;-86
2022/02/01 10:45:53;;;;;;;7.95;2.97;;;24.30;99.90;;;;;;4939551;29;20500;-86
2022/02/01 10:48:23;;;;;;;10.13;3.15;;;24.70;99.90;;;;;;4938018;29;20035;-89
2022/02/01 10:51:05;;;;;;;7.35;3.22;;;25.80;99.90;;;;;;4938835;29;20098;-90
2022/02/01 10:53:31;;;;;;;7.13;2.97;;;26.60;99.90;;;;;;4939053;29;20023;-88
2022/02/01 10:56:00;;;;;;;7.47;2.55;;;24.90;99.90;;;;;;4920141;29;20542;-86
2022/02/01 10:58:25;;;;;;;7.55;3.67;;;23.60;99.90;;;;;;4936274;29;20086;-86
2022/02/01 11:00:51;;;;;;;9.10;3.08;;;22.00;99.90;;;;;;4938911;29;20032;-87
2022/02/01 11:03:17;;;;;;;9.02;3.30;;;21.50;99.90;;;;;;4938114;29;20092;-88
2022/02/01 11:05:48;;;;;;;11.18;3.00;;;22.70;99.90;;;;;;4938899;29;20484;-86
2022/02/01 11:08:16;;;;;;;10.13;3.60;;;23.20;99.90;;;;;;4938842;29;20034;-84
2022/02/01 11:10:51;;;;;;;7.55;2.88;;;22.70;99.90;;;;;;4919508;29;20024;-85
2022/02/01 11:13:17;;;;;;;6.40;2.90;;;22.80;99.90;;;;;;4946674;29;20120;-85
2022/02/01 11:16:18;;;;;;;6.47;2.65;;;24.20;99.90;;;;;;4938506;29;20535;-85
2022/02/01 11:19:04;;;;;;;9.52;2.70;;;25.40;99.90;;;;;;4858942;29;20156;-86
2022/02/01 11:21:42;;;;;;;5.75;2.80;;;25.60;99.90;;;;;;4843025;29;20049;-88
2022/02/01 11:24:09;;;;;;;7.90;2.92;;;25.40;99.90;;;;;;4860696;29;20074;-88
2022/02/01 11:26:50;;;;;;;9.23;2.67;;;22.10;99.90;;;;;;4858359;29;20206;-86
2022/02/01 11:31:57;;;;;;;8.57;2.90;;;21.90;99.90;;;;;;4860164;29;20038;-87
2022/02/01 11:34:34;;;;;;;6.57;2.45;;;21.60;99.90;;;;;;4858077;29;20041;-88
2022/02/01 11:37:10;;;;;;;7.32;2.78;;;22.70;99.90;;;;;;4856634;29;20113;-85
2022/02/01 11:39:50;;;;;;;8.27;2.60;;;21.00;99.90;;;;;;4857374;29;20120;-85
2022/02/01 11:42:18;;;;;;;5.80;2.50;;;18.10;99.90;;;;;;4857724;29;20050;-86
2022/02/01 11:44:44;;;;;;;8.55;2.22;;;16.40;99.90;;;;;;4856886;29;20052;-85
2022/02/01 11:47:20;;;;;;;7.68;2.20;;;16.20;99.90;;;;;;4856843;29;20052;-86
2022/02/01 11:50:13;;;;;;;7.00;2.35;;;15.80;99.90;;;;;;4842532;29;20166;-85
2022/02/01 11:52:48;;;;;;;6.70;2.33;;;15.60;99.90;;;;;;4858196;29;20030;-88
2022/02/01 11:55:17;;;;;;;9.18;2.65;;;16.10;99.90;;;;;;4921969;29;20032;-89
2022/02/01 11:57:44;;;;;;;5.72;2.22;;;16.20;99.90;;;;;;4919186;29;20083;-90
2022/02/01 12:00:22;;;;;;;6.50;2.03;;;15.70;99.90;;;;;;4918477;29;20036;-85
2022/02/01 12:02:55;;;;;;;9.05;2.22;;;13.80;99.90;;;;;;4918903;29;20481;-88
2022/02/01 12:05:42;;;;;;;9.18;2.58;;;14.00;99.90;;;;;;4918657;29;20178;-85
2022/02/01 12:08:12;;;;;;;8.82;3.45;;;14.50;99.90;;;;;;4918311;29;20062;-86
2022/02/01 12:10:47;;;;;;;7.60;2.92;;;13.60;99.90;;;;;;4914702;29;20163;-86
2022/02/01 12:13:16;;;;;;;9.55;3.28;;;13.60;99.90;;;;;;4926833;29;20428;-86
2022/02/01 12:15:44;;;;;;;9.60;3.72;;;13.30;99.90;;;;;;4922290;29;20032;-85
2022/02/01 12:18:31;;;;;;;5.88;2.53;;;13.30;99.90;;;;;;4922277;29;20036;-94
2022/02/01 12:21:20;;;;;;;9.38;3.65;;;14.10;99.90;;;;;;4922147;29;20036;-85
2022/02/01 12:23:50;;;;;;;11.85;3.42;;;15.90;99.90;;;;;;4922411;29;20030;-85
2022/02/01 12:26:27;;;;;;;8.95;3.30;;;17.80;99.90;;;;;;4921865;29;20031;-84
2022/02/01 12:28:54;;;;;;;5.88;2.17;;;16.00;99.90;;;;;;4918843;29;20028;-85
2022/02/01 12:31:22;;;;;;;8.18;3.80;;;14.50;99.90;;;;;;4920478;29;20485;-84
2022/02/01 12:33:52;;;;;;;5.68;3.00;;;15.00;99.90;;;;;;4922516;29;20040;-85
2022/02/01 12:36:25;;;;;;;6.30;2.63;;;16.60;99.90;;;;;;4922573;29;20059;-85
2022/02/01 12:38:59;;;;;;;6.80;2.15;;;16.60;99.90;;;;;;4921758;29;20563;-85
2022/02/01 12:41:30;;;;;;;4.55;1.60;;;17.20;99.90;;;;;;4922035;29;20027;-85
2022/02/01 12:46:55;;;;;;;7.05;2.88;;;18.20;99.90;;;;;;4939035;29;20051;-85
2022/02/01 12:49:36;;;;;;;8.00;2.20;;;18.60;99.90;;;;;;4947404;29;20039;-85
2022/02/01 12:52:03;;;;;;;8.63;2.50;;;18.40;99.90;;;;;;4941581;29;20031;-85
2022/02/01 12:54:37;;;;;;;6.43;2.15;;;18.00;99.90;;;;;;4940515;29;20027;-85
2022/02/01 12:57:10;;;;;;;9.50;2.13;;;17.60;99.90;;;;;;4940592;29;20024;-85
2022/02/01 12:59:40;;;;;;;8.55;2.63;;;15.90;99.90;;;;;;4940453;29;20044;-85
2022/02/01 13:02:07;;;;;;;6.85;2.08;;;15.70;99.90;;;;;;4939533;29;20039;-85
2022/02/01 13:04:33;;;;;;;8.10;2.75;;;14.80;99.90;;;;;;4937548;29;20039;-85
2022/02/01 13:06:59;;;;;;;5.63;2.17;;;14.60;99.90;;;;;;4940971;29;20123;-85
2022/02/01 13:15:08;;;;;;;7.93;2.00;;;13.90;99.90;;;;;;4940117;29;20090;-84
2022/02/01 13:20:12;;;;;;;7.28;2.30;;;12.50;99.90;;;;;;4938190;29;20035;-84
2022/02/01 13:22:50;;;;;;;5.45;2.10;;;12.30;99.90;;;;;;4936618;29;20098;-85
2022/02/01 13:25:16;;;;;;;7.10;2.13;;;11.90;99.90;;;;;;4947708;29;20027;-85
2022/02/01 13:27:41;;;;;;;7.07;2.10;;;11.40;99.90;;;;;;4940176;29;20035;-85
2022/02/01 13:30:10;;;;;;;6.13;2.10;;;12.10;99.90;;;;;;4940117;29;20039;-85
2022/02/01 13:32:37;;;;;;;6.90;2.40;;;12.80;99.90;;;;;;4940443;29;20039;-85
2022/02/01 13:35:05;;;;;;;8.80;2.22;;;13.10;99.90;;;;;;4938387;29;20047;-85
2022/02/01 13:37:31;;;;;;;6.25;1.92;;;13.00;99.90;;;;;;4937098;29;20477;-84
2022/02/01 13:39:57;;;;;;;10.07;2.47;;;13.40;99.90;;;;;;4940465;29;20032;-84
2022/02/01 13:42:29;;;;;;;6.28;2.25;;;12.80;99.90;;;;;;4939033;29;20044;-85
2022/02/01 13:45:03;;;;;;;9.50;2.40;;;13.00;99.90;;;;;;4940000;29;20039;-84
2022/02/01 13:47:40;;;;;;;8.68;2.20;;;12.90;99.90;;;;;;4939580;29;20034;-85
2022/02/01 13:50:10;;;;;;;8.73;1.90;;;13.20;99.90;;;;;;4938572;29;20031;-85
2022/02/01 13:52:36;;;;;;;10.25;2.50;;;13.40;99.90;;;;;;4936617;29;20119;-84
2022/02/01 13:55:04;;;;;;;6.13;1.98;;;13.40;99.90;;;;;;4940358;29;20397;-84
2022/02/01 13:57:31;;;;;;;8.43;2.20;;;13.00;99.90;;;;;;4939364;29;20055;-84
2022/02/01 14:00:12;;;;;;;5.50;1.83;;;11.90;99.90;;;;;;4939373;29;20083;-85
2022/02/01 14:02:45;;;;;;;9.25;2.03;;;11.50;99.90;;;;;;4939514;29;20051;-84
2022/02/01 14:05:21;;;;;;;8.63;1.60;;;11.00;99.90;;;;;;4938741;29;20054;-84
2022/02/01 14:10:47;;;;;;;9.07;2.20;;;11.60;99.90;;;;;;4936859;29;20392;-84
2022/02/01 14:13:45;;;;;;;8.07;2.25;;;11.20;99.90;;;;;;4947295;29;20031;-84
2022/02/01 14:26:58;;;;;;;8.05;2.00;;;11.20;99.90;;;;;;4939111;29;20099;-84
2022/02/01 14:34:37;;;;;;;6.25;1.75;;;11.00;99.90;;;;;;4935263;29;20082;-85
2022/02/01 14:37:10;;;;;;;10.93;2.17;;;10.70;99.90;;;;;;4939363;28;20031;-84
2022/02/01 14:45:05;;;;;;;4.97;1.42;;;10.40;99.90;;;;;;4938045;29;20042;-84
2022/02/01 14:47:31;;;;;;;10.30;1.75;;;10.30;99.90;;;;;;4938457;29;20027;-84
2022/02/01 14:49:57;;;;;;;6.07;2.45;;;10.50;99.90;;;;;;4936449;29;20091;-85
2022/02/01 14:52:25;;;;;;;7.10;1.83;;;10.70;99.90;;;;;;4936504;29;20477;-85
2022/02/01 14:54:54;;;;;;;5.88;2.10;;;10.30;99.90;;;;;;4938493;29;20107;-84
2022/02/01 15:13:36;;;;;;;7.38;2.10;;;10.00;99.90;;;;;;4935090;29;20107;-84